AirNav   Air Wisconsin pilot careers
 
 659 users online  

1TA7 Thompson Field Airport
Canton, Texas, USA

GOING TO CANTON?


FAA INFORMATION EFFECTIVE 01 FEBRUARY 2018

Location

FAA Identifier: 1TA7
Lat/Long: 32-36-57.0000N / 095-52-05.1750W
32-36.950000N / 095-52.086250W
32.6158333 / -95.8681042
(estimated)
Elevation: 518 ft. / 158 m (estimated)
Variation: 06E (1990)
From city: 4 miles N of CANTON, TX
Time zone: UTC -6 (UTC -5 during Daylight Saving Time)
Zip code: 75103

Airport Operations

Airport use: Private use. Permission required prior to landing
Activation date: 07/1995
Control tower: no
ARTCC: FORT WORTH CENTER
FSS: FORT WORTH FLIGHT SERVICE STATION
Attendance: CONTINUOUS
Wind indicator: yes
Segmented circle: no
Beacon: white-green (lighted land airport)
Operates sunset to sunrise.

Nearby radio navigation aids

VOR radial/distance  VOR name  Freq  Var
TYRr298/28.2TYLER VOR/DME114.2006E
UIMr230/29.9QUITMAN VOR/DME114.0008E
CQYr028/31.3CEDAR CREEK VORTAC114.8006E
FZTr326/36.7FRANKSTON VOR/DME111.4006E
SLRr197/38.6SULPHUR SPRINGS VOR/DME109.0008E

 
NDB name  Hdg/Dist  Freq  Var  ID
TRAVIS108/21.126006EAVZ .- ...- --..
ATHENS350/27.526906EAHX .- .... -..-
CADDO MILLS137/31.931606EMII -- .. ..
CROSSROADS360/33.421508ECSZ -.-. ... --..
MESQUITE106/35.324803EPQF .--. --.- ..-.
AMBASSADOR266/38.240407EABG .- -... --.

Airport Services

Fuel available: 100LL
Parking: hangars
Airframe service: MINOR
Powerplant service: MINOR

Runway Information

Runway 13/31

Dimensions: 2500 x 40 ft. / 762 x 12 m
Surface: asphalt
RUNWAY 13  RUNWAY 31
Latitude: 32-37.095833N32-36.804167N
Longitude: 095-52.258333W095-51.914167W
Elevation: 513.0 ft.511.0 ft.
Traffic pattern: leftright

Airport Ownership and Management from official FAA records

Ownership: Privately-owned
Owner: THOMPSON AIRFIELD, LLC
690 VZCR 3119
EDGEWOOD, TX 75117
Phone 903-896-4647
Manager: MARK THOMPSON
690 VZCR 3119
EDGEWOOD, TX 75117
Phone 903-896-4647

Airport Operational Statistics

Aircraft based on the field: 34
Single engine airplanes: 30
Multi engine airplanes: 2
Ultralights: 2
    

Additional Remarks

PPR TO LAND. AGRICULTURE ACFT OPR ON FLD.

Instrument Procedures

There are no published instrument procedures at 1TA7.

Some nearby airports with instrument procedures:

3F9 - Mineola Airport-Wisener Field (18 nm E)
KJDD - Wood County Airport (20 nm E)
KTRL - Terrell Municipal Airport (21 nm W)
F44 - Athens Municipal Airport (27 nm S)
KTYR - Tyler Pounds Regional Airport (28 nm SE)
 
Loc | Ops | Rwys | IFR | FBO | Links
Com | Nav | Svcs | Stats | Notes

AirNav Hotels Sweepstakes
 
Area around 1TA7 (Thompson Field Airport)
 
Road maps at: MapQuest Bing Google
 
Aerial photo
WARNING: Photo may not be current or correct
Aerial photo of 1TA7 (Thompson Field Airport)
Photo by Jon Hicks
Taken in August 2010
looking southeast.

Do you have a better or more recent aerial photo of Thompson Field Airport that you would like to share? If so, please send us your photo.

 
Sectional chart

 
Airport distance calculator
Flying to Thompson Field Airport? Find the distance to fly.

From to 1TA7

Sunrise and sunset
Times for 24-Feb-2018
 Local
(UTC-6)
 Zulu
(UTC)
Morning civil twilight06:3312:33
Sunrise06:5812:58
Sunset18:1600:16
Evening civil twilight18:4000:40

Current date and time
Zulu (UTC)  24-Feb-2018 12:57:32
Local (UTC-6)  24-Feb-2018 06:57:32
 
METAR
KJDD 
20nm E 
241235Z AUTO 16004KT 4SM BR SCT012 OVC018 17/17 A2992 RMK AO2
KTRL 
21nm W 
241253Z AUTO 07006KT 1/2SM -RA FG VV002 12/11 A2986 RMK AO2 RAB1154 PRESFR SLP109 P0000 T01170106
KF44 
27nm S 
241235Z AUTO 18008KT 7SM OVC006 18/18 A2989 RMK AO2 LTG DSNT N
KTYR 
28nm SE 
241253Z 16012KT 10SM OVC007 21/19 A2991 RMK AO2 CIG 006V011 SLP122 T02060194
KGVT 
29nm N 
241230Z AUTO 00000KT 1SM TSRA OVC003 12/12 A2991 RMK AO2 P0003 LTG DSNT W THRU N
KF46 
34nm NW 
241235Z AUTO 13005KT 2 1/2SM -RA BKN005 OVC009 11/11 A2989 RMK AO2 LTG DSNT SW THRU NE P0007 T01100110
KHQZ 
34nm W 
241250Z 08006KT 1/2SM FG OVC003 10/10 A2986
KSLR 
35nm N 
241235Z AUTO 00000KT 1/2SM FG OVC003 12/12 A2994 RMK AO2 LTG DSNT W AND NW T01200120
TAF
KTYR 
28nm SE 
241143Z 2412/2512 18010KT P6SM BKN007 OVC060 TEMPO 2412/2415 4SM BR OVC004 FM241700 19018G30KT P6SM VCTS BKN030CB TEMPO 2418/2420 1SM +TSRA BR OVC015CB FM242200 35005KT P6SM SCT200 TEMPO 2422/2424 28010KT BKN080
NOTAMs
Click for the latest NOTAMs
NOTAMs are issued by the DoD/FAA and will open in a separate window not controlled by AirNav.

 

 
 

Would you like to see your business listed on this page?

 If your business provides an interesting product or service to pilots, flight crews, aircraft, or users of the Thompson Field Airport, you should consider listing it here.  To start the listing process, click on the button below
 
Add a business
 

Other Pages about Thompson Field Airport

www.tailwindairpark.com
 
Update a link
 
Copyright © AirNav, LLC. All rights reserved. Privacy Policy  Contact